Time;durP1;ratioP1;P1;durP2;ratioP2;P2;SDS_P1;SDS_P2;PMS_P1;PMS_P2;Temp;Humidity;BMP_temperature;BMP_pressure;BME280_temperature;BME280_humidity;BME280_pressure;Samples;Min_cycle;Max_cycle;Signal;HPM_P1;HPM_P2
2021/05/09 00:01:06;;;;;;;2.13;1.23;;;19.00;62.50;;;;;;5143032;28;20511;-40
2021/05/09 00:03:36;;;;;;;1.60;1.00;;;18.90;60.20;;;;;;5143307;28;20481;-41
2021/05/09 00:06:08;;;;;;;0.87;0.87;;;18.60;62.10;;;;;;5131315;28;20436;-41
2021/05/09 00:08:38;;;;;;;1.33;1.13;;;18.60;62.30;;;;;;5138436;28;20427;-40
2021/05/09 00:11:08;;;;;;;1.07;0.97;;;18.40;65.40;;;;;;5142967;28;20957;-40
2021/05/09 00:13:39;;;;;;;2.93;1.03;;;18.40;64.00;;;;;;5142870;28;20460;-41
2021/05/09 00:16:09;;;;;;;0.93;0.90;;;18.50;65.00;;;;;;5143644;28;20925;-41
2021/05/09 00:18:39;;;;;;;1.17;1.07;;;18.50;64.70;;;;;;5143482;28;20469;-39
2021/05/09 00:21:10;;;;;;;2.27;1.40;;;18.80;66.40;;;;;;5141705;28;20566;-40
2021/05/09 00:23:57;;;;;;;1.70;1.60;;;19.00;62.80;;;;;;5145869;27;20524;-41
2021/05/09 00:26:27;;;;;;;1.90;1.70;;;18.80;62.50;;;;;;5146762;27;20437;-38
2021/05/09 00:28:57;;;;;;;3.50;1.47;;;18.90;64.90;;;;;;5147945;27;20452;-40
2021/05/09 00:31:27;;;;;;;2.10;1.53;;;18.90;63.00;;;;;;5146548;27;20427;-40
2021/05/09 00:33:57;;;;;;;1.70;1.60;;;18.80;62.30;;;;;;5147299;27;20427;-39
2021/05/09 00:36:29;;;;;;;4.50;1.93;;;18.50;63.90;;;;;;5146803;27;20509;-40
2021/05/09 00:38:59;;;;;;;1.97;1.50;;;18.30;65.70;;;;;;5143521;27;20959;-41
2021/05/09 00:41:30;;;;;;;1.80;1.60;;;18.40;63.30;;;;;;5145174;27;21099;-41
2021/05/09 00:44:01;;;;;;;2.00;1.80;;;18.40;66.00;;;;;;5147396;27;20480;-40
2021/05/09 00:46:31;;;;;;;1.40;1.30;;;18.20;65.80;;;;;;5145604;27;20453;-40
2021/05/09 00:49:03;;;;;;;1.33;1.20;;;18.40;67.50;;;;;;5147338;27;20430;-40
2021/05/09 00:51:34;;;;;;;2.43;1.20;;;18.40;65.80;;;;;;5145949;27;20445;-41
2021/05/09 00:54:05;;;;;;;1.63;1.30;;;18.40;66.50;;;;;;5147335;27;20963;-41
2021/05/09 00:56:35;;;;;;;1.50;1.40;;;18.30;66.50;;;;;;5146550;27;20846;-42
2021/05/09 00:59:05;;;;;;;1.27;1.17;;;18.30;67.40;;;;;;5147088;27;20416;-41
2021/05/09 01:01:36;;;;;;;1.53;1.40;;;18.30;67.90;;;;;;5145714;27;20451;-40
2021/05/09 01:04:06;;;;;;;1.93;1.43;;;18.10;68.20;;;;;;5146249;27;20453;-41
2021/05/09 01:06:38;;;;;;;1.60;1.23;;;18.00;67.10;;;;;;5139034;27;20445;-41
2021/05/09 01:09:08;;;;;;;1.50;1.40;;;17.90;68.80;;;;;;5145753;27;20436;-37
2021/05/09 01:11:38;;;;;;;1.40;1.30;;;17.90;69.00;;;;;;5145294;27;20440;-42
2021/05/09 01:14:08;;;;;;;2.23;1.33;;;17.80;70.20;;;;;;5146864;27;20444;-41
2021/05/09 01:16:38;;;;;;;2.90;2.00;;;17.80;71.40;;;;;;5146412;27;20451;-41
2021/05/09 01:19:08;;;;;;;2.00;1.70;;;17.60;71.30;;;;;;5145575;27;20551;-38
2021/05/09 01:21:39;;;;;;;1.63;1.53;;;17.70;71.60;;;;;;5145651;27;20606;-41
2021/05/09 01:24:10;;;;;;;2.00;1.47;;;17.70;72.20;;;;;;5146303;27;20522;-39
2021/05/09 01:26:41;;;;;;;1.50;1.40;;;17.60;71.90;;;;;;5126882;27;20426;-42
2021/05/09 01:29:11;;;;;;;2.27;1.57;;;17.50;72.10;;;;;;5146253;27;20513;-41
2021/05/09 01:31:43;;;;;;;2.13;1.60;;;17.50;72.50;;;;;;5145525;27;20416;-40
2021/05/09 01:34:13;;;;;;;2.80;1.67;;;17.50;73.40;;;;;;5145859;27;20964;-38
2021/05/09 01:36:45;;;;;;;1.60;1.40;;;17.60;72.20;;;;;;5145256;27;20478;-40
2021/05/09 01:39:15;;;;;;;1.83;1.70;;;17.60;72.70;;;;;;5146206;27;20445;-40
2021/05/09 01:41:45;;;;;;;1.90;1.80;;;17.60;72.50;;;;;;5145696;27;20484;-37
2021/05/09 01:44:34;;;;;;;2.90;1.50;;;17.70;71.70;;;;;;5146226;27;20466;-40
2021/05/09 01:47:04;;;;;;;2.23;2.03;;;17.40;72.00;;;;;;5145078;27;20419;-40
2021/05/09 01:49:34;;;;;;;4.53;1.73;;;17.20;73.90;;;;;;5130219;27;20441;-41
2021/05/09 01:52:06;;;;;;;2.20;1.83;;;17.20;72.40;;;;;;5145408;27;20493;-39
2021/05/09 01:54:36;;;;;;;2.10;1.47;;;17.00;74.60;;;;;;5145893;27;20437;-40
2021/05/09 01:57:06;;;;;;;4.00;2.10;;;16.90;74.80;;;;;;5144646;27;20433;-40
2021/05/09 01:59:36;;;;;;;3.17;1.87;;;16.90;76.30;;;;;;5145158;27;20990;-41
2021/05/09 02:02:06;;;;;;;1.93;1.40;;;16.90;76.20;;;;;;5144929;27;20484;-41
2021/05/09 02:04:36;;;;;;;2.03;1.70;;;16.80;77.00;;;;;;5145743;27;20482;-41
2021/05/09 02:07:08;;;;;;;3.20;2.50;;;16.90;76.80;;;;;;5144511;27;20451;-41
2021/05/09 02:09:37;;;;;;;2.60;2.27;;;17.00;77.70;;;;;;5145801;27;20494;-39
2021/05/09 02:12:08;;;;;;;5.00;2.30;;;16.90;77.80;;;;;;5144480;27;20797;-40
2021/05/09 02:14:38;;;;;;;2.30;1.70;;;16.80;77.30;;;;;;5145347;27;20506;-41
2021/05/09 02:17:08;;;;;;;3.20;2.20;;;16.70;77.00;;;;;;5143830;27;20436;-41
2021/05/09 02:19:38;;;;;;;3.00;2.37;;;16.60;77.90;;;;;;5144540;27;20453;-41
2021/05/09 02:22:09;;;;;;;2.67;2.23;;;16.60;77.20;;;;;;5144375;27;20514;-41
2021/05/09 02:24:39;;;;;;;2.50;2.30;;;16.40;77.70;;;;;;5145456;27;20457;-40
2021/05/09 02:27:18;;;;;;;3.10;2.67;;;16.40;79.50;;;;;;5143566;27;20546;-41
2021/05/09 02:29:50;;;;;;;3.43;2.67;;;16.40;79.50;;;;;;5144888;27;20444;-41
2021/05/09 02:32:20;;;;;;;3.77;2.10;;;16.30;80.20;;;;;;5144502;27;20469;-42
2021/05/09 02:34:51;;;;;;;5.13;2.33;;;16.30;79.90;;;;;;5145418;27;20759;-42
2021/05/09 02:37:22;;;;;;;2.83;1.50;;;16.20;79.70;;;;;;5143922;27;20501;-41
2021/05/09 02:39:52;;;;;;;1.83;1.73;;;16.20;79.90;;;;;;5147499;27;20843;-39
2021/05/09 02:42:23;;;;;;;1.77;1.67;;;16.20;79.30;;;;;;5142727;27;20484;-40
2021/05/09 02:44:54;;;;;;;2.67;1.97;;;16.10;81.40;;;;;;5139965;27;20472;-40
2021/05/09 02:47:30;;;;;;;3.10;2.90;;;16.00;80.80;;;;;;5143837;27;20445;-41
2021/05/09 02:50:01;;;;;;;2.43;2.23;;;16.00;82.80;;;;;;5143419;27;20441;-40
2021/05/09 02:52:34;;;;;;;2.47;2.27;;;15.90;82.50;;;;;;5143427;27;20931;-42
2021/05/09 02:55:31;;;;;;;2.27;2.17;;;15.90;83.40;;;;;;5138611;27;20441;-40
2021/05/09 02:58:29;;;;;;;2.27;2.07;;;15.80;83.40;;;;;;5142892;27;20493;-42
2021/05/09 03:01:07;;;;;;;4.17;2.27;;;15.80;84.30;;;;;;5140296;27;20548;-42
2021/05/09 03:03:47;;;;;;;2.50;1.70;;;15.80;84.50;;;;;;5143903;27;20547;-42
2021/05/09 03:06:27;;;;;;;2.50;2.30;;;15.70;85.20;;;;;;5144206;27;20876;-40
2021/05/09 03:09:10;;;;;;;3.63;2.37;;;15.70;84.40;;;;;;5143361;27;20524;-40
2021/05/09 03:12:05;;;;;;;3.73;2.70;;;15.70;84.50;;;;;;5143276;27;20943;-40
2021/05/09 03:14:35;;;;;;;2.83;2.27;;;15.60;85.00;;;;;;5144205;27;20448;-40
2021/05/09 03:17:10;;;;;;;3.50;2.37;;;15.50;86.30;;;;;;5143031;27;20456;-39
2021/05/09 03:19:44;;;;;;;3.47;2.30;;;15.50;85.60;;;;;;5143824;27;20432;-41
2021/05/09 03:22:14;;;;;;;2.57;2.37;;;15.40;86.40;;;;;;5143648;27;20484;-40
2021/05/09 03:24:45;;;;;;;3.10;2.57;;;15.30;86.70;;;;;;5143517;27;20444;-40
2021/05/09 03:27:28;;;;;;;3.30;2.53;;;15.30;88.00;;;;;;5142662;27;20481;-41
2021/05/09 03:30:21;;;;;;;2.50;2.30;;;15.20;87.50;;;;;;5132429;27;20497;-42
2021/05/09 03:33:01;;;;;;;2.80;2.20;;;15.20;88.10;;;;;;5143602;28;20452;-41
2021/05/09 03:35:31;;;;;;;2.50;2.30;;;15.20;89.60;;;;;;5134301;27;20453;-42
2021/05/09 03:38:06;;;;;;;2.60;2.40;;;15.20;91.00;;;;;;5121042;28;21424;-40
2021/05/09 03:40:50;;;;;;;3.40;2.27;;;15.20;90.90;;;;;;5141278;28;20470;-40
2021/05/09 03:43:34;;;;;;;2.60;2.40;;;15.20;90.90;;;;;;5127491;28;20533;-42
2021/05/09 03:46:06;;;;;;;3.80;2.90;;;15.10;91.70;;;;;;5143757;28;20449;-42
2021/05/09 03:48:49;;;;;;;4.03;3.10;;;15.10;92.20;;;;;;5143694;28;21139;-42
2021/05/09 03:51:19;;;;;;;5.00;2.93;;;15.10;92.60;;;;;;5144030;28;20452;-42
2021/05/09 03:53:49;;;;;;;3.07;2.83;;;15.10;93.80;;;;;;5142731;28;20440;-42
2021/05/09 03:56:23;;;;;;;4.23;3.37;;;15.10;95.30;;;;;;5141994;28;20443;-41
2021/05/09 03:58:53;;;;;;;3.37;2.90;;;15.00;96.80;;;;;;5142322;27;20858;-41
2021/05/09 04:01:23;;;;;;;3.23;2.80;;;14.90;99.90;;;;;;5147401;27;20483;-41
2021/05/09 04:03:53;;;;;;;3.33;3.03;;;14.70;99.90;;;;;;5147434;27;20807;-41
2021/05/09 04:06:23;;;;;;;2.60;2.40;;;14.60;99.90;;;;;;5147338;27;20445;-40
2021/05/09 04:08:53;;;;;;;2.90;2.70;;;14.60;99.90;;;;;;5147982;27;20471;-40
2021/05/09 04:11:24;;;;;;;4.67;3.17;;;14.50;99.90;;;;;;5147886;27;20977;-40
2021/05/09 04:13:54;;;;;;;3.77;3.40;;;14.40;99.90;;;;;;5147501;27;20449;-42
2021/05/09 04:16:24;;;;;;;4.57;3.00;;;14.50;99.90;;;;;;5147045;27;20457;-40
2021/05/09 04:18:54;;;;;;;4.20;2.90;;;14.50;99.90;;;;;;5147376;27;20551;-41
2021/05/09 04:21:24;;;;;;;4.93;3.00;;;14.40;99.90;;;;;;5142292;27;20588;-40
2021/05/09 04:23:54;;;;;;;4.07;3.10;;;14.40;99.90;;;;;;5129530;27;20512;-40
2021/05/09 04:26:26;;;;;;;3.30;3.00;;;14.50;99.90;;;;;;5146174;27;20433;-38
2021/05/09 04:28:57;;;;;;;4.30;3.90;;;14.50;99.90;;;;;;5146676;27;20856;-41
2021/05/09 04:31:41;;;;;;;3.80;3.50;;;14.50;99.90;;;;;;5146883;27;20459;-40
2021/05/09 04:34:18;;;;;;;3.47;3.17;;;14.50;99.90;;;;;;5142988;27;20448;-39
2021/05/09 04:36:57;;;;;;;4.60;3.13;;;14.50;99.90;;;;;;5144144;27;20461;-40
2021/05/09 04:39:27;;;;;;;3.90;3.50;;;14.40;99.90;;;;;;5144378;27;20493;-40
2021/05/09 04:42:02;;;;;;;3.67;3.00;;;14.40;99.90;;;;;;5144704;27;20505;-40
2021/05/09 04:44:35;;;;;;;3.20;2.90;;;14.40;99.90;;;;;;5142440;27;20490;-40
2021/05/09 04:47:10;;;;;;;2.90;2.70;;;14.50;99.90;;;;;;5146910;27;20497;-39
2021/05/09 04:49:40;;;;;;;2.83;2.53;;;14.50;99.90;;;;;;5143393;27;21820;-39
2021/05/09 04:52:12;;;;;;;2.60;2.40;;;14.40;99.90;;;;;;5144644;27;20452;-39
2021/05/09 04:54:45;;;;;;;2.80;2.57;;;14.30;99.90;;;;;;5145821;27;20540;-42
2021/05/09 04:57:20;;;;;;;2.30;2.10;;;14.30;99.90;;;;;;5142430;27;20440;-37
2021/05/09 04:59:55;;;;;;;2.30;2.10;;;14.40;99.90;;;;;;5147051;27;20505;-39
2021/05/09 05:02:34;;;;;;;2.20;2.00;;;14.30;99.90;;;;;;5146247;27;20515;-38
2021/05/09 05:05:16;;;;;;;2.07;1.87;;;14.40;99.90;;;;;;5146421;27;20531;-40
2021/05/09 05:07:46;;;;;;;2.77;2.57;;;14.30;99.90;;;;;;5128601;27;20476;-38
2021/05/09 05:10:23;;;;;;;2.43;2.23;;;14.20;99.90;;;;;;5145931;27;20482;-37
2021/05/09 05:13:05;;;;;;;2.23;2.03;;;14.20;99.90;;;;;;5145501;27;20449;-40
2021/05/09 05:15:48;;;;;;;2.50;2.30;;;14.20;99.90;;;;;;5141916;27;20451;-40
2021/05/09 05:18:24;;;;;;;2.47;2.27;;;14.10;99.90;;;;;;5146021;27;20444;-39
2021/05/09 05:21:03;;;;;;;2.10;2.00;;;14.10;99.90;;;;;;5146596;27;20497;-40
2021/05/09 05:23:33;;;;;;;2.60;2.40;;;14.10;99.90;;;;;;5132769;27;20535;-39
2021/05/09 05:26:24;;;;;;;2.40;2.07;;;14.10;99.90;;;;;;5145527;27;20463;-39
2021/05/09 05:29:03;;;;;;;2.63;2.43;;;14.10;99.90;;;;;;5146138;27;20464;-40
2021/05/09 05:31:44;;;;;;;3.50;2.83;;;14.00;99.90;;;;;;5130690;27;20497;-40
2021/05/09 05:34:17;;;;;;;2.80;2.60;;;14.10;99.90;;;;;;5145069;27;20470;-40
2021/05/09 05:36:49;;;;;;;2.60;2.40;;;14.10;99.90;;;;;;5144966;27;20476;-40
2021/05/09 05:39:24;;;;;;;3.30;2.63;;;14.10;99.90;;;;;;5131475;27;20461;-40
2021/05/09 05:41:58;;;;;;;2.87;2.67;;;14.10;99.90;;;;;;5144985;27;20492;-37
2021/05/09 05:44:30;;;;;;;2.50;2.30;;;14.00;99.90;;;;;;5146927;27;20533;-40
2021/05/09 05:47:00;;;;;;;3.03;2.40;;;14.00;99.90;;;;;;5145007;27;21136;-38
2021/05/09 05:49:54;;;;;;;2.80;2.60;;;13.90;99.90;;;;;;5143380;27;20467;-40
2021/05/09 05:52:24;;;;;;;4.83;2.57;;;14.00;99.90;;;;;;5145117;27;20792;-39
2021/05/09 05:54:55;;;;;;;3.43;2.90;;;13.90;99.90;;;;;;5145380;27;20441;-40
2021/05/09 05:57:25;;;;;;;4.00;2.67;;;13.90;99.90;;;;;;5143234;27;20506;-39
2021/05/09 05:59:56;;;;;;;2.93;2.70;;;13.90;99.90;;;;;;5141631;27;20437;-40
2021/05/09 06:02:26;;;;;;;3.50;2.70;;;13.80;99.90;;;;;;5144395;27;20485;-40
2021/05/09 06:04:57;;;;;;;2.83;2.60;;;13.70;99.90;;;;;;5144253;27;20448;-40
2021/05/09 06:07:29;;;;;;;3.50;2.83;;;13.70;99.90;;;;;;5145042;27;20433;-41
2021/05/09 06:09:59;;;;;;;4.67;3.40;;;13.60;99.90;;;;;;5145121;27;20441;-40
2021/05/09 06:12:29;;;;;;;4.03;3.60;;;13.60;99.90;;;;;;5136719;27;20501;-39
2021/05/09 06:15:05;;;;;;;4.90;3.57;;;13.60;99.90;;;;;;5143813;27;20436;-41
2021/05/09 06:17:35;;;;;;;3.10;2.90;;;13.60;99.90;;;;;;5144415;27;20993;-40
2021/05/09 06:20:07;;;;;;;6.03;3.43;;;13.50;99.90;;;;;;5142975;27;20616;-39
2021/05/09 06:22:37;;;;;;;2.80;2.60;;;13.60;99.90;;;;;;5144193;27;20498;-38
2021/05/09 06:25:08;;;;;;;3.83;3.53;;;13.70;99.90;;;;;;5144885;27;20975;-38
2021/05/09 06:27:38;;;;;;;4.07;3.10;;;13.60;99.90;;;;;;5143635;27;20535;-40
2021/05/09 06:30:10;;;;;;;3.47;3.10;;;13.60;99.90;;;;;;5145179;27;20445;-40
2021/05/09 06:32:40;;;;;;;5.17;3.53;;;13.50;99.90;;;;;;5144995;27;20479;-40
2021/05/09 06:35:11;;;;;;;3.40;3.10;;;13.60;99.90;;;;;;5144561;27;20456;-41
2021/05/09 06:37:41;;;;;;;3.40;3.10;;;13.60;99.90;;;;;;5140668;27;20442;-37
2021/05/09 06:40:12;;;;;;;4.00;3.60;;;13.60;99.90;;;;;;5140465;27;20506;-38
2021/05/09 06:42:42;;;;;;;5.23;3.77;;;13.70;99.90;;;;;;5143556;27;20485;-39
2021/05/09 06:45:26;;;;;;;3.50;3.20;;;13.60;99.90;;;;;;5144012;27;20472;-40
2021/05/09 06:47:56;;;;;;;3.87;3.40;;;13.50;99.90;;;;;;5138865;27;20445;-40
2021/05/09 06:50:28;;;;;;;4.57;3.97;;;13.50;99.90;;;;;;5144731;27;20445;-40
2021/05/09 06:52:58;;;;;;;3.53;3.20;;;13.50;99.90;;;;;;5144502;27;20552;-38
2021/05/09 06:55:29;;;;;;;3.10;2.90;;;13.50;99.90;;;;;;5143729;27;20529;-39
2021/05/09 06:57:59;;;;;;;4.57;4.17;;;13.50;99.90;;;;;;5142937;27;20445;-40
2021/05/09 07:00:30;;;;;;;4.03;3.63;;;13.50;99.90;;;;;;5144933;27;20796;-39
2021/05/09 07:03:00;;;;;;;3.90;3.60;;;13.50;99.90;;;;;;5143608;27;20509;-40
2021/05/09 07:05:30;;;;;;;3.40;3.10;;;13.40;99.90;;;;;;5143049;27;20449;-40
2021/05/09 07:08:00;;;;;;;3.10;2.80;;;13.40;99.90;;;;;;5143625;27;20437;-40
2021/05/09 07:10:33;;;;;;;3.10;2.90;;;13.40;99.90;;;;;;5143788;27;20445;-38
2021/05/09 07:13:03;;;;;;;3.80;3.40;;;13.40;99.90;;;;;;5143168;27;20445;-41
2021/05/09 07:15:36;;;;;;;4.27;2.90;;;13.30;99.90;;;;;;5144880;27;20445;-41
2021/05/09 07:18:09;;;;;;;3.20;2.90;;;13.40;99.90;;;;;;5143389;27;20449;-41
2021/05/09 07:20:41;;;;;;;3.40;3.07;;;13.40;99.90;;;;;;5144478;27;20449;-39
2021/05/09 07:23:12;;;;;;;3.27;2.83;;;13.50;99.90;;;;;;5143808;27;20867;-38
2021/05/09 07:25:42;;;;;;;6.73;2.83;;;13.50;99.90;;;;;;5143571;27;20765;-39
2021/05/09 07:28:14;;;;;;;3.20;2.90;;;13.40;99.90;;;;;;5141746;27;20456;-38
2021/05/09 07:30:46;;;;;;;2.97;2.47;;;13.30;99.90;;;;;;5144352;27;20475;-40
2021/05/09 07:33:17;;;;;;;3.40;3.20;;;13.30;99.90;;;;;;5143865;27;20449;-40
2021/05/09 07:35:47;;;;;;;2.53;2.30;;;13.30;99.90;;;;;;5142293;27;20455;-39
2021/05/09 07:38:17;;;;;;;2.60;2.40;;;13.30;99.90;;;;;;5138553;28;20503;-39
2021/05/09 07:40:46;;;;;;;2.37;2.17;;;13.40;99.90;;;;;;5144483;28;20441;-40
2021/05/09 07:43:17;;;;;;;2.60;2.40;;;13.30;99.90;;;;;;5143559;28;20559;-37
2021/05/09 07:45:49;;;;;;;2.70;2.50;;;13.30;99.90;;;;;;5143715;28;20835;-39
2021/05/09 07:48:20;;;;;;;2.47;2.30;;;13.30;99.90;;;;;;5142910;28;20449;-40
2021/05/09 07:50:50;;;;;;;2.53;2.30;;;13.30;99.90;;;;;;5144139;28;20502;-39
2021/05/09 07:53:20;;;;;;;2.47;2.30;;;13.30;99.90;;;;;;5144446;28;20466;-40
2021/05/09 07:55:50;;;;;;;2.43;2.23;;;13.30;99.90;;;;;;5143342;28;20959;-39
2021/05/09 07:58:21;;;;;;;3.13;2.23;;;13.30;99.90;;;;;;5142271;28;20537;-40
2021/05/09 08:00:52;;;;;;;2.33;2.10;;;13.30;99.90;;;;;;5128429;28;20858;-39
2021/05/09 08:03:22;;;;;;;2.30;2.10;;;13.30;99.90;;;;;;5143196;28;20510;-39
2021/05/09 08:05:53;;;;;;;4.43;2.33;;;13.30;99.90;;;;;;5143349;28;20437;-40
2021/05/09 08:08:27;;;;;;;4.30;2.73;;;13.30;99.90;;;;;;5143812;28;20448;-40
2021/05/09 08:11:01;;;;;;;2.33;2.13;;;13.30;99.90;;;;;;5144060;28;20558;-39
2021/05/09 08:13:30;;;;;;;2.50;2.30;;;13.30;99.90;;;;;;5132018;28;20452;-40
2021/05/09 08:16:02;;;;;;;2.00;1.90;;;13.30;99.90;;;;;;5143701;28;20442;-40
2021/05/09 08:18:33;;;;;;;2.23;2.13;;;13.20;99.90;;;;;;5142977;28;20535;-40
2021/05/09 08:21:03;;;;;;;2.77;2.43;;;13.10;99.90;;;;;;5144139;28;20433;-40
2021/05/09 08:23:35;;;;;;;2.93;2.63;;;13.20;99.90;;;;;;5144176;28;20789;-37
2021/05/09 08:26:05;;;;;;;2.20;2.03;;;13.10;99.90;;;;;;5142908;28;20457;-40
2021/05/09 08:28:35;;;;;;;2.80;2.33;;;13.10;99.90;;;;;;5142514;28;20502;-41
2021/05/09 08:31:06;;;;;;;2.80;2.53;;;13.10;99.90;;;;;;5143738;28;20462;-40
2021/05/09 08:33:36;;;;;;;2.50;2.30;;;13.10;99.90;;;;;;5143057;28;20441;-39
2021/05/09 08:36:07;;;;;;;3.20;2.20;;;13.10;99.90;;;;;;5144234;28;20864;-38
2021/05/09 08:38:37;;;;;;;2.97;2.10;;;13.10;99.90;;;;;;5136977;28;20468;-39
2021/05/09 08:41:07;;;;;;;2.10;2.00;;;13.10;99.90;;;;;;5143705;28;20452;-39
2021/05/09 08:43:37;;;;;;;2.00;1.83;;;13.10;99.90;;;;;;5142522;27;20492;-40
2021/05/09 08:46:10;;;;;;;2.47;1.87;;;13.00;99.90;;;;;;5143694;27;20476;-38
2021/05/09 08:48:41;;;;;;;3.60;2.23;;;13.00;99.90;;;;;;5146272;27;20501;-40
2021/05/09 08:51:11;;;;;;;3.57;2.40;;;13.00;99.90;;;;;;5147757;27;20476;-40
2021/05/09 08:53:43;;;;;;;2.30;2.13;;;13.00;99.90;;;;;;5146570;27;20440;-38
2021/05/09 08:56:13;;;;;;;3.50;2.00;;;13.10;99.90;;;;;;5146980;27;20513;-39
2021/05/09 08:58:43;;;;;;;1.90;1.80;;;13.10;99.90;;;;;;5145307;27;20501;-39
2021/05/09 09:01:14;;;;;;;2.47;2.30;;;13.10;99.90;;;;;;5146901;27;20445;-39
2021/05/09 09:03:44;;;;;;;2.33;2.03;;;13.00;99.90;;;;;;5145931;27;20448;-40
2021/05/09 09:06:17;;;;;;;2.97;2.67;;;13.10;99.90;;;;;;5146890;27;20797;-40
2021/05/09 09:08:51;;;;;;;1.80;1.70;;;13.10;99.90;;;;;;5146356;27;20509;-38
2021/05/09 09:11:28;;;;;;;2.50;2.10;;;13.10;99.90;;;;;;5146791;27;20478;-37
2021/05/09 09:14:11;;;;;;;2.67;2.23;;;13.00;99.90;;;;;;5146786;27;20440;-39
2021/05/09 09:16:42;;;;;;;3.03;2.33;;;13.00;99.90;;;;;;5145901;27;20444;-37
2021/05/09 09:19:13;;;;;;;2.10;2.00;;;13.00;99.90;;;;;;5145854;27;20923;-39
2021/05/09 09:21:44;;;;;;;2.80;2.10;;;13.00;99.90;;;;;;5147167;27;20464;-39
2021/05/09 09:24:14;;;;;;;2.40;2.20;;;13.10;99.90;;;;;;5147056;27;20470;-38
2021/05/09 09:26:48;;;;;;;3.00;2.10;;;13.00;99.90;;;;;;5145171;27;20478;-40
2021/05/09 09:29:23;;;;;;;1.90;1.80;;;13.00;99.90;;;;;;5146240;27;20499;-39
2021/05/09 09:31:56;;;;;;;2.73;2.20;;;13.00;99.90;;;;;;5146302;27;20459;-39
2021/05/09 09:34:39;;;;;;;2.93;2.40;;;12.90;99.90;;;;;;5145590;27;20441;-38
2021/05/09 09:37:09;;;;;;;2.90;2.50;;;12.90;99.90;;;;;;5146089;27;20448;-39
2021/05/09 09:39:47;;;;;;;2.40;2.07;;;12.80;99.90;;;;;;5134692;27;20513;-38
2021/05/09 09:42:35;;;;;;;2.10;1.90;;;12.80;99.90;;;;;;5144197;27;20472;-38
2021/05/09 09:45:18;;;;;;;2.03;1.93;;;12.80;99.90;;;;;;5145029;27;20476;-38
2021/05/09 09:47:55;;;;;;;2.50;2.30;;;12.80;99.90;;;;;;5138434;27;21100;-40
2021/05/09 09:50:42;;;;;;;2.87;2.23;;;12.80;99.90;;;;;;5145677;27;20436;-40
2021/05/09 09:53:28;;;;;;;3.10;2.43;;;12.90;99.90;;;;;;5145799;27;20452;-39
2021/05/09 09:56:07;;;;;;;2.70;2.03;;;12.90;99.90;;;;;;5143045;27;20444;-37
2021/05/09 09:58:45;;;;;;;2.50;2.30;;;12.80;99.90;;;;;;5143800;27;21385;-38
2021/05/09 10:01:19;;;;;;;2.57;1.90;;;12.90;99.90;;;;;;5146098;27;20466;-41
2021/05/09 10:03:50;;;;;;;2.60;2.40;;;12.90;99.90;;;;;;5144900;27;20488;-40
2021/05/09 10:06:23;;;;;;;2.40;2.20;;;12.90;99.90;;;;;;5141710;27;20955;-39
2021/05/09 10:08:53;;;;;;;2.50;2.30;;;12.80;99.90;;;;;;5143798;27;20866;-39
2021/05/09 10:11:23;;;;;;;2.00;1.80;;;12.80;99.90;;;;;;5145367;27;20484;-39
2021/05/09 10:13:57;;;;;;;1.90;1.80;;;12.80;99.90;;;;;;5145301;27;20437;-39
2021/05/09 10:16:28;;;;;;;2.90;2.60;;;12.80;99.90;;;;;;5144230;27;20445;-37
2021/05/09 10:19:01;;;;;;;2.60;2.40;;;12.80;99.90;;;;;;5144234;27;20477;-40
2021/05/09 10:21:32;;;;;;;3.33;1.60;;;12.80;99.90;;;;;;5144502;27;20445;-37
2021/05/09 10:24:13;;;;;;;2.00;1.90;;;12.70;99.90;;;;;;5145218;27;20526;-39
2021/05/09 10:26:57;;;;;;;2.60;2.17;;;12.70;99.90;;;;;;5143514;27;20444;-40
2021/05/09 10:29:50;;;;;;;2.43;2.23;;;12.70;99.90;;;;;;5143828;27;20457;-38
2021/05/09 10:32:51;;;;;;;2.47;2.10;;;12.70;99.90;;;;;;5142169;27;20485;-39
2021/05/09 10:35:54;;;;;;;2.20;2.00;;;12.70;99.90;;;;;;5145225;27;20449;-38
2021/05/09 10:38:23;;;;;;;1.93;1.63;;;12.70;99.90;;;;;;5137167;27;20484;-39
2021/05/09 10:41:10;;;;;;;2.63;1.53;;;12.60;99.90;;;;;;5144166;27;20468;-39
2021/05/09 10:43:41;;;;;;;3.30;2.60;;;12.50;99.90;;;;;;5143379;27;20499;-38
2021/05/09 10:46:12;;;;;;;2.27;2.07;;;12.50;99.90;;;;;;5144353;27;20449;-37
2021/05/09 10:48:42;;;;;;;1.87;1.77;;;12.60;99.90;;;;;;5128214;27;20437;-40
2021/05/09 10:51:33;;;;;;;2.60;2.40;;;12.60;99.90;;;;;;5144324;27;20509;-40
2021/05/09 10:54:22;;;;;;;2.10;2.00;;;12.60;99.90;;;;;;5144613;27;20453;-39
2021/05/09 10:56:53;;;;;;;2.80;1.73;;;12.60;99.90;;;;;;5143031;27;20449;-39
2021/05/09 10:59:59;;;;;;;2.03;1.83;;;12.50;99.90;;;;;;5144181;27;20449;-39
2021/05/09 11:02:32;;;;;;;1.80;1.70;;;12.50;99.90;;;;;;5143121;27;20930;-40
2021/05/09 11:05:01;;;;;;;2.20;2.00;;;12.50;99.90;;;;;;5143918;27;20449;-37
2021/05/09 11:07:46;;;;;;;1.97;1.63;;;12.40;99.90;;;;;;5144050;27;20436;-39
2021/05/09 11:10:40;;;;;;;2.40;1.53;;;12.40;99.90;;;;;;5144382;27;20517;-40
2021/05/09 11:13:10;;;;;;;2.37;1.70;;;12.40;99.90;;;;;;5143778;27;20445;-39
2021/05/09 11:15:40;;;;;;;2.93;2.63;;;12.40;99.90;;;;;;5143832;27;20456;-39
2021/05/09 11:18:17;;;;;;;2.33;1.30;;;12.30;99.90;;;;;;5143712;27;20441;-39
2021/05/09 11:20:54;;;;;;;2.30;2.03;;;12.40;99.90;;;;;;5143926;27;20440;-40
2021/05/09 11:23:26;;;;;;;1.87;1.77;;;12.40;99.90;;;;;;5144053;27;20944;-40
2021/05/09 11:25:56;;;;;;;3.90;2.10;;;12.30;99.90;;;;;;5144601;27;20478;-41
2021/05/09 11:28:29;;;;;;;1.80;1.60;;;12.30;99.90;;;;;;5142945;27;20523;-39
2021/05/09 11:30:59;;;;;;;2.30;2.10;;;12.30;99.90;;;;;;5143362;27;20471;-38
2021/05/09 11:33:53;;;;;;;2.73;1.80;;;12.30;99.90;;;;;;5143475;27;20474;-37
2021/05/09 11:36:27;;;;;;;2.90;1.83;;;12.30;99.90;;;;;;5144298;27;20497;-40
2021/05/09 11:39:10;;;;;;;2.30;2.07;;;12.30;99.90;;;;;;5142256;28;20541;-40
2021/05/09 11:41:50;;;;;;;2.10;1.83;;;12.30;99.90;;;;;;5142542;28;20444;-38
2021/05/09 11:44:22;;;;;;;1.73;1.60;;;12.30;99.90;;;;;;5143767;28;20469;-41
2021/05/09 11:46:53;;;;;;;2.97;1.90;;;12.30;99.90;;;;;;5143327;28;20453;-41
2021/05/09 11:49:25;;;;;;;2.30;2.07;;;12.30;99.90;;;;;;5143500;28;20590;-38
2021/05/09 11:51:55;;;;;;;3.10;1.70;;;12.30;99.90;;;;;;5136174;28;20517;-39
2021/05/09 11:54:29;;;;;;;1.87;1.77;;;12.30;99.90;;;;;;5143969;28;21022;-36
2021/05/09 11:57:00;;;;;;;2.80;1.90;;;12.30;99.90;;;;;;5142320;28;20469;-39
2021/05/09 11:59:38;;;;;;;2.00;1.83;;;12.30;99.90;;;;;;5143134;28;20448;-38
2021/05/09 12:02:28;;;;;;;2.20;2.10;;;12.20;99.90;;;;;;5143703;28;20471;-39
2021/05/09 12:05:00;;;;;;;2.17;1.90;;;12.20;99.90;;;;;;5141213;28;20511;-39
2021/05/09 12:07:31;;;;;;;4.43;2.47;;;12.30;99.90;;;;;;5143535;28;20456;-38
2021/05/09 12:10:05;;;;;;;2.27;2.07;;;12.20;99.90;;;;;;5143970;28;20482;-39
2021/05/09 12:12:36;;;;;;;4.30;2.00;;;12.30;99.90;;;;;;5141876;28;20517;-37
2021/05/09 12:15:12;;;;;;;4.63;2.07;;;12.20;99.90;;;;;;5142649;28;20460;-37
2021/05/09 12:17:53;;;;;;;2.47;2.10;;;12.30;99.90;;;;;;5143216;28;20445;-38
2021/05/09 12:20:32;;;;;;;2.23;2.03;;;12.30;99.90;;;;;;5145979;27;20938;-39
2021/05/09 12:23:03;;;;;;;3.57;2.10;;;12.30;99.90;;;;;;5147621;27;20489;-38
2021/05/09 12:25:38;;;;;;;2.70;2.33;;;12.20;99.90;;;;;;5147845;27;20445;-39
2021/05/09 12:28:16;;;;;;;1.70;1.60;;;12.30;99.90;;;;;;5145710;27;20452;-40
2021/05/09 12:30:47;;;;;;;2.30;2.10;;;12.30;99.90;;;;;;5147073;27;20474;-38
2021/05/09 12:33:27;;;;;;;2.33;2.13;;;12.30;99.90;;;;;;5147171;27;20441;-37
2021/05/09 12:35:58;;;;;;;2.27;1.93;;;12.40;99.90;;;;;;5147025;27;20509;-39
2021/05/09 12:38:29;;;;;;;3.60;2.60;;;12.40;99.90;;;;;;5142098;27;20505;-38
2021/05/09 12:41:05;;;;;;;3.30;2.00;;;12.30;99.90;;;;;;5145956;27;20780;-39
2021/05/09 12:43:46;;;;;;;3.63;2.10;;;12.30;99.90;;;;;;5146129;27;20637;-37
2021/05/09 12:46:37;;;;;;;3.27;2.50;;;12.30;99.90;;;;;;5146710;27;20456;-37
2021/05/09 12:49:12;;;;;;;2.33;2.13;;;12.30;99.90;;;;;;5146795;27;20447;-36
2021/05/09 12:52:00;;;;;;;2.80;2.60;;;12.20;99.90;;;;;;5145417;27;20459;-39
2021/05/09 12:54:39;;;;;;;2.30;2.10;;;12.20;99.90;;;;;;5143911;27;20939;-37
2021/05/09 12:57:18;;;;;;;3.10;2.57;;;12.20;99.90;;;;;;5145829;27;20531;-39
2021/05/09 12:59:50;;;;;;;3.17;2.40;;;12.20;99.90;;;;;;5147192;27;20514;-37
2021/05/09 13:02:21;;;;;;;4.53;2.57;;;12.20;99.90;;;;;;5145887;27;20513;-36
2021/05/09 13:04:55;;;;;;;2.57;2.20;;;12.30;99.90;;;;;;5146194;27;20445;-38
2021/05/09 13:07:25;;;;;;;2.90;2.60;;;12.30;99.90;;;;;;5143834;27;20441;-39
2021/05/09 13:09:55;;;;;;;2.57;2.37;;;12.30;99.90;;;;;;5146599;27;20743;-37
2021/05/09 13:12:26;;;;;;;2.80;2.30;;;12.30;99.90;;;;;;5145413;27;20857;-38
2021/05/09 13:14:56;;;;;;;3.33;2.40;;;12.40;99.90;;;;;;5135908;27;20472;-37
2021/05/09 13:17:26;;;;;;;4.10;2.60;;;12.40;99.90;;;;;;5144452;27;20541;-38
2021/05/09 13:19:57;;;;;;;2.70;2.50;;;12.40;99.90;;;;;;5145543;27;20533;-38
2021/05/09 13:22:27;;;;;;;3.37;2.90;;;12.40;99.90;;;;;;5144829;27;20473;-37